Stinson Beach, CA (94970)

10:53 PM PDT on August 28, 2016 (GMT -0700)
Stinson Beach | | Change Station

Elev 10 ft 37.91 °N, 122.67 °W | Updated 37 seconds ago

Mostly Cloudy
Mostly Cloudy
57.9 °F
Feels Like 57.9 °F
N
2.9
Wind Variable Wind from NW
Gusts 4.0 mph

Today
High -- | Low -- °F
--% Chance of Precip.
Yesterday
High -- | Low -- °F
Precip. -- in
Pressure 30.11 in
Visibility 10.0 miles
Clouds Mostly Cloudy 1300 ft
Dew Point 54 °F
Humidity 88%
Rainfall 0.00 in
Snow Depth Not available.
6:37 AM 7:44 PM
Waning Crescent, 11% visible
METAR KO69 290535Z AUTO 32005KT 10SM BKN013 13/M44 A3011 RMK AO1
Pressure 30.11 in
Visibility 10.0 miles
Clouds Mostly Cloudy 1300 ft
Dew Point 54 °F
Humidity 88%
Rainfall 0.00 in
Snow Depth Not available.
6:37 AM 7:44 PM
Waning Crescent, 11% visible
METAR KO69 290535Z AUTO 32005KT 10SM BKN013 13/M44 A3011 RMK AO1

10-Day Weather Forecast

Almanac

Astronomy

Aug. 28, 2016 Rise Set
Actual Time
Civil Twilight
Nautical Twilight
Astronomical Twilight
Moon
Length of Visible Light
Length of Day
Tomorrow will be .
, % of the Moon is Illuminated

Today's Extremes

State Highs State Lows

Community

WunderPhotos

Upload Photos

1,935,800 photos uploaded!

WunderBlog® & News

Nearby

Air Quality

  Air Quality AQ Index Pollutant
Not available.

Snow Depth

Station Depth Elevation

Earthquake Activity

City Distance Mag. Time & Date
Minimum magnitude displayed is 2.5.

Coastal Water Temperatures

Place Temperature

Stations

Nearby Weather Stations

Station Location Temp. Windchill Dew Point Humidity Wind Precip. Elev Updated Type
                   

Watches & Warnings

There are currently no watches in effect.